createdAt,value
2019-05-20T00:01:14.493Z,71.78
2019-05-20T00:03:44.318Z,71.79
2019-05-20T00:06:13.929Z,71.78
2019-05-20T00:08:43.659Z,71.86
2019-05-20T00:11:13.323Z,71.99
2019-05-20T00:13:42.933Z,71.93
2019-05-20T00:16:12.617Z,71.99
2019-05-20T00:18:42.401Z,72.15
2019-05-20T00:21:12.183Z,72.12
2019-05-20T00:23:41.758Z,72.07
2019-05-20T00:26:12.106Z,72.06
2019-05-20T00:28:41.634Z,71.96
2019-05-20T00:31:11.312Z,71.82
2019-05-20T00:33:40.934Z,71.63
2019-05-20T00:36:10.800Z,71.50
2019-05-20T00:38:40.387Z,71.54
2019-05-20T00:41:09.970Z,71.37
2019-05-20T00:43:39.670Z,71.59
2019-05-20T00:46:09.381Z,71.46
2019-05-20T00:48:39.102Z,71.50
2019-05-20T00:51:08.797Z,71.87
2019-05-20T00:53:38.568Z,72.12
2019-05-20T00:56:08.297Z,72.53
2019-05-20T00:58:37.943Z,72.51
2019-05-20T01:01:07.742Z,72.31
2019-05-20T01:03:37.317Z,72.38
2019-05-20T01:06:07.051Z,72.44
2019-05-20T01:08:36.757Z,72.04
2019-05-20T01:11:06.542Z,72.31
2019-05-20T01:13:36.305Z,72.09
2019-05-20T01:16:05.968Z,71.78
2019-05-20T01:18:35.698Z,71.80
2019-05-20T01:21:05.568Z,71.34
2019-05-20T01:23:35.259Z,71.37
2019-05-20T01:26:05.008Z,71.43
2019-05-20T01:28:34.586Z,71.62
2019-05-20T01:31:04.440Z,71.66
2019-05-20T01:33:34.157Z,71.84
2019-05-20T01:36:03.778Z,71.77
2019-05-20T01:38:33.562Z,71.90
2019-05-20T01:41:03.271Z,71.79
2019-05-20T01:43:32.931Z,72.00
2019-05-20T01:46:02.558Z,71.75
2019-05-20T01:48:32.292Z,71.90
2019-05-20T01:51:01.904Z,72.10
2019-05-20T01:53:31.608Z,72.15
2019-05-20T01:56:01.358Z,72.06
2019-05-20T01:58:30.922Z,72.05
2019-05-20T02:01:00.633Z,72.06
2019-05-20T02:03:32.271Z,71.96
2019-05-20T02:06:01.669Z,71.90
2019-05-20T02:08:31.560Z,71.82
2019-05-20T02:11:01.337Z,71.81
2019-05-20T02:13:48.527Z,71.89
2019-05-20T02:16:18.739Z,71.84
2019-05-20T02:18:48.471Z,71.93
2019-05-20T02:21:18.152Z,72.01
2019-05-20T02:23:47.766Z,71.96
2019-05-20T02:26:17.614Z,71.99
2019-05-20T02:28:47.292Z,72.26
2019-05-20T02:31:16.987Z,72.23
2019-05-20T02:33:52.249Z,72.30
2019-05-20T02:36:17.965Z,71.94
2019-05-20T02:38:47.696Z,72.06
2019-05-20T02:41:17.533Z,71.92
2019-05-20T02:43:47.228Z,71.71
2019-05-20T02:46:16.954Z,72.08
2019-05-20T02:48:46.614Z,72.19
2019-05-20T02:51:17.933Z,72.57
2019-05-20T02:53:47.562Z,72.08
2019-05-20T02:56:17.214Z,71.95
2019-05-20T02:58:46.919Z,71.71
2019-05-20T03:01:16.568Z,71.92
2019-05-20T03:03:46.345Z,72.40
2019-05-20T03:06:16.181Z,72.31
2019-05-20T03:08:45.822Z,72.32
2019-05-20T03:11:15.526Z,71.99
2019-05-20T03:13:45.340Z,71.88
2019-05-20T03:16:15.814Z,71.90
2019-05-20T03:18:45.555Z,71.65
2019-05-20T03:21:15.217Z,72.02
2019-05-20T03:23:45.261Z,72.05
2019-05-20T03:26:15.363Z,71.16
2019-05-20T03:28:45.400Z,71.83
2019-05-20T03:31:15.568Z,71.66
2019-05-20T03:33:45.822Z,71.55
2019-05-20T03:36:15.997Z,71.69
2019-05-20T03:38:46.310Z,71.73
2019-05-20T03:41:16.353Z,71.56
2019-05-20T03:43:46.690Z,71.48
2019-05-20T03:46:16.966Z,71.23
2019-05-20T03:48:47.421Z,70.81
2019-05-20T03:51:17.788Z,71.10
2019-05-20T03:53:48.019Z,71.11
2019-05-20T03:56:18.589Z,70.81
2019-05-20T03:58:48.614Z,70.51
2019-05-20T04:01:18.990Z,70.76
2019-05-20T04:03:49.247Z,70.70
2019-05-20T04:06:20.054Z,70.98
2019-05-20T04:08:50.520Z,70.80
2019-05-20T04:11:20.798Z,70.94
2019-05-20T04:13:51.607Z,71.22
2019-05-20T04:16:21.806Z,71.17
2019-05-20T04:18:54.122Z,71.25
2019-05-20T04:21:23.163Z,71.37
2019-05-20T04:23:53.351Z,71.29
2019-05-20T04:26:23.823Z,71.09
2019-05-20T04:28:54.335Z,71.07
2019-05-20T04:31:24.689Z,70.82
2019-05-20T04:33:55.218Z,70.83
2019-05-20T04:36:25.568Z,70.36
2019-05-20T04:38:57.449Z,69.83
2019-05-20T04:41:27.760Z,70.30
2019-05-20T04:43:58.333Z,69.80
2019-05-20T04:46:28.739Z,69.89
2019-05-20T04:48:58.945Z,69.93
2019-05-20T04:51:29.459Z,69.34
2019-05-20T04:53:59.965Z,69.32
2019-05-20T04:56:30.286Z,69.00
2019-05-20T04:59:00.500Z,68.97
2019-05-20T05:01:31.331Z,69.04
2019-05-20T05:04:01.716Z,69.12
2019-05-20T05:06:32.170Z,68.99
2019-05-20T05:09:02.754Z,68.99
2019-05-20T05:11:33.397Z,69.17
2019-05-20T05:14:04.014Z,69.81
2019-05-20T05:16:34.039Z,69.43
2019-05-20T05:19:04.308Z,69.46
2019-05-20T05:21:34.757Z,68.06
2019-05-20T05:24:05.230Z,68.09
2019-05-20T05:26:35.536Z,68.24
2019-05-20T05:29:05.841Z,68.92
2019-05-20T05:31:36.267Z,67.39
2019-05-20T05:34:06.718Z,66.94
2019-05-20T05:36:36.837Z,66.64
2019-05-20T05:39:08.148Z,67.06
2019-05-20T05:41:38.234Z,67.35
2019-05-20T05:44:08.399Z,67.30
2019-05-20T05:46:38.674Z,67.64
2019-05-20T05:49:09.093Z,67.43
2019-05-20T05:51:39.522Z,66.59
2019-05-20T05:54:09.930Z,66.00
2019-05-20T05:56:40.202Z,66.24
2019-05-20T05:59:10.564Z,66.42
2019-05-20T06:01:40.976Z,67.14
2019-05-20T06:04:11.914Z,66.83
2019-05-20T06:06:42.282Z,65.97
2019-05-20T06:09:12.471Z,66.27
2019-05-20T06:11:42.956Z,66.26
2019-05-20T06:14:13.501Z,66.25
2019-05-20T06:16:43.604Z,66.45
2019-05-20T06:19:13.660Z,66.93
2019-05-20T06:21:43.851Z,66.73
2019-05-20T06:24:14.242Z,66.16
2019-05-20T06:26:44.451Z,66.34
2019-05-20T06:29:14.861Z,66.97
2019-05-20T06:31:45.187Z,65.75
2019-05-20T06:34:15.620Z,66.28
2019-05-20T06:36:47.896Z,65.42
2019-05-20T06:39:18.467Z,64.64
2019-05-20T06:41:49.063Z,64.81
2019-05-20T06:44:19.860Z,65.42
2019-05-20T06:46:50.276Z,64.81
2019-05-20T06:49:21.008Z,65.42
2019-05-20T06:51:51.663Z,64.39
2019-05-20T06:54:21.743Z,64.47
2019-05-20T06:56:51.983Z,64.37
2019-05-20T06:59:23.021Z,63.24
2019-05-20T07:01:53.177Z,62.81
2019-05-20T07:04:22.548Z,63.27
2019-05-20T07:06:53.064Z,61.63
2019-05-20T07:09:23.403Z,61.43
2019-05-20T07:11:53.734Z,61.04
2019-05-20T07:14:24.349Z,60.40
2019-05-20T07:16:54.592Z,59.22
2019-05-20T07:19:24.853Z,59.79
2019-05-20T07:21:55.146Z,59.33
2019-05-20T07:24:25.670Z,58.81
2019-05-20T07:26:56.142Z,58.33
2019-05-20T07:29:26.421Z,58.31
2019-05-20T07:31:56.870Z,58.49
2019-05-20T07:34:27.277Z,58.59
2019-05-20T07:37:03.328Z,58.48
2019-05-20T07:39:29.389Z,58.01
2019-05-20T07:41:59.751Z,58.54
2019-05-20T07:44:30.009Z,58.37
2019-05-20T07:47:00.299Z,58.63
2019-05-20T07:49:30.759Z,58.25
2019-05-20T07:52:01.265Z,57.73
2019-05-20T07:54:32.249Z,58.19
2019-05-20T07:57:06.134Z,58.05
2019-05-20T07:59:36.657Z,57.59
2019-05-20T08:02:06.958Z,57.57
2019-05-20T08:04:37.456Z,57.05
2019-05-20T08:07:26.607Z,57.08
2019-05-20T08:09:45.810Z,56.78
2019-05-20T08:12:12.245Z,56.11
2019-05-20T08:14:42.639Z,55.92
2019-05-20T08:17:13.243Z,56.14
2019-05-20T08:19:43.858Z,56.67
2019-05-20T08:24:53.422Z,55.76
2019-05-20T08:27:24.764Z,55.16
2019-05-20T08:29:55.135Z,54.50
2019-05-20T08:32:25.718Z,54.14
2019-05-20T08:34:56.193Z,54.35
2019-05-20T08:37:26.341Z,54.07
2019-05-20T08:39:57.258Z,53.64
2019-05-20T08:42:27.262Z,53.66
2019-05-20T08:44:58.126Z,54.40
2019-05-20T08:47:28.517Z,53.71
2019-05-20T08:49:58.549Z,54.61
2019-05-20T08:52:28.673Z,54.39
2019-05-20T08:55:01.683Z,55.04
2019-05-20T08:57:32.711Z,55.38
2019-05-20T09:00:03.288Z,55.31
2019-05-20T09:02:34.011Z,55.51
2019-05-20T09:05:06.947Z,55.15
2019-05-20T09:07:37.074Z,55.83
2019-05-20T09:10:07.899Z,55.52
2019-05-20T09:12:38.219Z,56.10
2019-05-20T09:15:09.496Z,54.81
2019-05-20T09:17:39.876Z,53.84
2019-05-20T09:20:10.886Z,52.76
2019-05-20T09:22:40.929Z,52.24
2019-05-20T09:25:12.715Z,52.71
2019-05-20T09:27:45.447Z,52.89
2019-05-20T09:30:15.719Z,53.12
2019-05-20T09:32:46.299Z,52.15
2019-05-20T09:35:16.698Z,53.05
2019-05-20T09:37:47.133Z,53.25
2019-05-20T09:40:46.921Z,53.13
2019-05-20T09:43:18.368Z,53.03
2019-05-20T09:46:05.280Z,53.46
2019-05-20T09:48:24.410Z,53.06
2019-05-20T09:50:53.917Z,53.18
2019-05-20T09:53:25.288Z,52.34
2019-05-20T09:55:55.613Z,53.09
2019-05-20T09:58:27.608Z,51.96
2019-05-20T10:00:58.669Z,53.07
2019-05-20T10:03:29.040Z,51.70
2019-05-20T10:05:59.601Z,50.96
2019-05-20T10:08:38.880Z,50.79
2019-05-20T10:11:01.945Z,50.47
2019-05-20T10:13:33.924Z,51.34
2019-05-20T10:16:04.154Z,50.59
2019-05-20T10:18:37.779Z,50.55
2019-05-20T10:21:06.890Z,50.40
2019-05-20T10:23:38.499Z,49.87
2019-05-20T10:26:08.939Z,50.82
2019-05-20T10:28:41.931Z,50.07
2019-05-20T10:31:10.293Z,50.60
2019-05-20T10:33:40.768Z,50.27
2019-05-20T10:36:12.441Z,50.02
2019-05-20T10:38:57.808Z,48.94
2019-05-20T10:41:14.880Z,49.08
2019-05-20T10:43:46.564Z,50.80
2019-05-20T10:46:16.807Z,50.10
2019-05-20T10:48:47.567Z,49.06
2019-05-20T10:51:17.636Z,49.14
2019-05-20T10:53:47.925Z,49.61
2019-05-20T10:56:18.267Z,47.83
2019-05-20T10:58:47.662Z,47.90
2019-05-20T11:01:18.049Z,48.08
2019-05-20T11:03:49.753Z,49.29
2019-05-20T11:06:20.159Z,48.83
2019-05-20T11:08:50.429Z,48.00
2019-05-20T11:11:20.624Z,48.16
2019-05-20T11:13:53.116Z,48.02
2019-05-20T11:16:23.863Z,48.25
2019-05-20T11:18:55.640Z,48.70
2019-05-20T11:21:26.070Z,49.64
2019-05-20T11:23:56.611Z,49.48
2019-05-20T11:26:29.600Z,49.72
2019-05-20T11:29:00.131Z,51.33
2019-05-20T11:31:30.542Z,51.47
2019-05-20T11:34:01.866Z,52.58
2019-05-20T11:36:33.920Z,51.99
2019-05-20T11:39:07.231Z,50.54
2019-05-20T11:41:54.212Z,50.56
2019-05-20T11:44:11.817Z,50.29
2019-05-20T11:46:40.758Z,49.17
2019-05-20T11:49:11.080Z,50.27
2019-05-20T11:51:42.119Z,49.84
2019-05-20T11:54:12.355Z,49.34
2019-05-20T11:56:44.159Z,50.54
2019-05-20T11:59:15.707Z,49.51
2019-05-20T12:01:46.891Z,50.29
2019-05-20T12:04:17.392Z,50.06
2019-05-20T12:06:48.001Z,51.32
2019-05-20T12:09:18.212Z,49.14
2019-05-20T12:11:48.772Z,49.37
2019-05-20T12:14:19.024Z,49.84
2019-05-20T12:16:50.724Z,49.89
2019-05-20T12:19:21.123Z,49.26
2019-05-20T12:21:51.576Z,49.33
2019-05-20T12:24:21.754Z,50.20
2019-05-20T12:26:52.990Z,48.49
2019-05-20T12:29:23.179Z,47.92
2019-05-20T12:31:53.241Z,48.66
2019-05-20T12:34:23.817Z,47.77
2019-05-20T12:36:54.266Z,47.53
2019-05-20T12:39:26.126Z,47.51
2019-05-20T12:41:56.386Z,47.40
2019-05-20T12:44:26.463Z,48.17
2019-05-20T12:46:56.824Z,49.40
2019-05-20T12:49:27.332Z,48.97
2019-05-20T12:51:57.536Z,49.10
2019-05-20T12:54:27.865Z,48.50
2019-05-20T12:56:58.414Z,47.72
2019-05-20T12:59:29.117Z,48.01
2019-05-20T13:01:59.410Z,48.59
2019-05-20T13:04:29.835Z,47.80
2019-05-20T13:06:59.949Z,48.32
2019-05-20T13:09:30.095Z,49.21
2019-05-20T13:12:00.419Z,50.41
2019-05-20T13:14:30.902Z,50.10
2019-05-20T13:17:01.278Z,48.94
2019-05-20T13:19:31.409Z,48.70
2019-05-20T13:22:34.128Z,48.81
2019-05-20T13:25:05.789Z,50.94
2019-05-20T13:27:36.122Z,50.87
2019-05-20T13:30:10.303Z,50.85
2019-05-20T13:32:40.567Z,51.54
2019-05-20T13:35:10.945Z,51.08
2019-05-20T13:37:41.253Z,51.88
2019-05-20T13:40:11.925Z,52.66
2019-05-20T13:42:42.036Z,53.28
2019-05-20T13:45:14.417Z,50.84
2019-05-20T13:47:46.180Z,50.09
2019-05-20T13:50:18.148Z,49.83
2019-05-20T13:52:49.302Z,50.10
2019-05-20T13:55:20.092Z,51.59
2019-05-20T13:57:50.360Z,50.67
2019-05-20T14:00:21.271Z,52.27
2019-05-20T14:02:51.735Z,53.33
2019-05-20T14:05:21.980Z,52.15
2019-05-20T14:07:54.396Z,52.63
2019-05-20T14:10:24.423Z,52.24
2019-05-20T14:12:54.417Z,51.23
2019-05-20T14:15:24.407Z,51.15
2019-05-20T14:17:55.055Z,52.70
2019-05-20T14:20:25.798Z,52.13
2019-05-20T14:22:56.077Z,52.99
2019-05-20T14:25:29.091Z,54.02
2019-05-20T14:27:57.718Z,52.71
2019-05-20T14:30:27.986Z,50.96
2019-05-20T14:32:58.469Z,51.26
2019-05-20T14:35:28.723Z,51.21
2019-05-20T14:37:59.061Z,52.09
2019-05-20T14:40:29.305Z,51.62
2019-05-20T14:42:59.601Z,51.17
2019-05-20T14:45:29.884Z,50.28
2019-05-20T14:48:00.097Z,50.40
2019-05-20T14:50:30.460Z,50.41
2019-05-20T14:53:00.847Z,50.47
2019-05-20T14:55:41.479Z,48.28
2019-05-20T14:58:02.681Z,47.85
2019-05-20T15:00:32.569Z,46.55
2019-05-20T15:03:02.745Z,45.11
2019-05-20T15:05:33.039Z,45.18
2019-05-20T15:08:03.442Z,46.08
2019-05-20T15:10:34.079Z,48.68
2019-05-20T15:13:04.350Z,47.77
2019-05-20T15:15:34.909Z,50.63
2019-05-20T15:18:05.263Z,49.76
2019-05-20T15:20:35.423Z,49.82
2019-05-20T15:23:05.876Z,50.40
2019-05-20T15:25:36.323Z,50.83
2019-05-20T15:28:06.633Z,51.78
2019-05-20T15:30:36.802Z,51.84
2019-05-20T15:33:07.023Z,52.47
2019-05-20T15:35:37.346Z,54.39
2019-05-20T15:38:07.805Z,54.47
2019-05-20T15:40:38.021Z,56.74
2019-05-20T15:43:08.250Z,55.39
2019-05-20T15:45:38.403Z,53.78
2019-05-20T15:48:08.869Z,54.07
2019-05-20T15:50:39.262Z,54.93
2019-05-20T15:53:11.893Z,54.91
2019-05-20T15:55:41.537Z,55.09
2019-05-20T15:58:11.769Z,54.98
2019-05-20T16:00:42.221Z,55.42
2019-05-20T16:03:12.356Z,55.34
2019-05-20T16:05:42.707Z,54.90
2019-05-20T16:08:13.019Z,55.63
2019-05-20T16:10:43.303Z,55.80
2019-05-20T16:13:13.691Z,56.48
2019-05-20T16:15:44.131Z,55.83
2019-05-20T16:18:14.466Z,56.12
2019-05-20T16:20:44.890Z,55.97
2019-05-20T16:23:15.048Z,56.17
2019-05-20T16:25:45.282Z,56.99
2019-05-20T16:28:15.485Z,56.82
2019-05-20T16:30:45.660Z,57.69
2019-05-20T16:33:16.093Z,56.82
2019-05-20T16:35:46.508Z,56.92
2019-05-20T16:38:16.583Z,57.76
2019-05-20T16:40:46.930Z,56.83
2019-05-20T16:43:17.138Z,56.57
2019-05-20T16:45:47.569Z,56.98
2019-05-20T16:48:17.590Z,57.37
2019-05-20T16:50:47.768Z,57.75
2019-05-20T16:53:18.060Z,57.23
2019-05-20T16:55:47.231Z,56.46
2019-05-20T16:58:17.550Z,56.69
2019-05-20T17:00:47.764Z,56.89
2019-05-20T17:03:18.208Z,57.32
2019-05-20T17:05:48.671Z,57.45
2019-05-20T17:08:18.785Z,57.48
2019-05-20T17:10:48.987Z,57.24
2019-05-20T17:13:19.298Z,57.15
2019-05-20T17:15:49.797Z,57.10
2019-05-20T17:18:20.062Z,56.88
2019-05-20T17:20:50.971Z,56.36
2019-05-20T17:23:20.126Z,56.27
2019-05-20T17:25:50.875Z,56.49
2019-05-20T17:28:21.349Z,56.64
2019-05-20T17:30:51.692Z,56.80
2019-05-20T17:33:21.840Z,56.85
2019-05-20T17:35:52.080Z,56.94
2019-05-20T17:38:22.357Z,57.42
2019-05-20T17:40:52.730Z,57.43
2019-05-20T17:43:23.052Z,57.99
2019-05-20T17:45:53.144Z,57.95
2019-05-20T17:48:23.606Z,57.91
2019-05-20T17:50:54.094Z,58.15
2019-05-20T17:53:24.332Z,58.69
2019-05-20T17:55:54.761Z,58.28
2019-05-20T17:58:25.160Z,58.24
2019-05-20T18:00:55.612Z,59.16
2019-05-20T18:03:25.928Z,59.30
2019-05-20T18:05:56.363Z,59.47
2019-05-20T18:08:28.243Z,59.38
2019-05-20T18:10:58.537Z,59.20
2019-05-20T18:13:28.878Z,59.90
2019-05-20T18:15:58.922Z,59.59
2019-05-20T18:18:29.307Z,59.56
2019-05-20T18:20:59.534Z,59.73
2019-05-20T18:23:30.012Z,58.96
2019-05-20T18:26:03.312Z,58.69
2019-05-20T18:28:32.257Z,59.28
2019-05-20T18:31:02.538Z,59.32
2019-05-20T18:33:32.763Z,59.73
2019-05-20T18:36:02.993Z,59.97
2019-05-20T18:38:33.310Z,60.58
2019-05-20T18:41:03.799Z,60.46
2019-05-20T18:43:34.160Z,60.34
2019-05-20T18:46:04.477Z,60.69
2019-05-20T18:48:34.753Z,62.11
2019-05-20T18:51:05.126Z,61.91
2019-05-20T18:53:35.411Z,61.12
2019-05-20T18:56:05.884Z,61.71
2019-05-20T18:58:36.188Z,61.14
2019-05-20T19:01:06.980Z,61.73
2019-05-20T19:03:37.154Z,62.05
2019-05-20T19:06:07.707Z,61.49
2019-05-20T19:08:37.878Z,61.90
2019-05-20T19:11:08.241Z,62.06
2019-05-20T19:13:38.364Z,61.75
2019-05-20T19:16:08.718Z,61.92
2019-05-20T19:18:39.011Z,61.58
2019-05-20T19:21:09.286Z,61.39
2019-05-20T19:23:39.640Z,61.35
2019-05-20T19:26:23.539Z,61.32
2019-05-20T19:28:41.297Z,61.25
2019-05-20T19:31:11.039Z,61.45
2019-05-20T19:33:40.749Z,61.29
2019-05-20T19:36:10.619Z,61.22
2019-05-20T19:38:40.585Z,61.39
2019-05-20T19:41:10.593Z,61.66
2019-05-20T19:43:40.509Z,61.62
2019-05-20T19:46:10.194Z,61.67
2019-05-20T19:48:39.939Z,61.83
2019-05-20T19:51:09.831Z,61.09
2019-05-20T19:53:39.557Z,61.27
2019-05-20T19:56:09.431Z,61.58
2019-05-20T19:58:39.312Z,61.50
2019-05-20T20:01:08.958Z,61.51
2019-05-20T20:03:38.554Z,61.57
2019-05-20T20:06:11.422Z,62.18
2019-05-20T20:08:41.142Z,62.47
2019-05-20T20:11:11.043Z,62.27
2019-05-20T20:13:40.745Z,62.28
2019-05-20T20:16:10.482Z,62.01
2019-05-20T20:18:40.343Z,62.78
2019-05-20T20:21:10.313Z,62.97
2019-05-20T20:23:40.091Z,62.98
2019-05-20T20:26:09.821Z,64.29
2019-05-20T20:28:39.380Z,63.68
2019-05-20T20:31:10.959Z,63.72
2019-05-20T20:33:40.447Z,63.79
2019-05-20T20:36:09.284Z,64.16
2019-05-20T20:38:39.181Z,64.72
2019-05-20T20:41:08.855Z,64.49
2019-05-20T20:43:38.579Z,63.95
2019-05-20T20:46:08.403Z,64.22
2019-05-20T20:48:38.059Z,64.76
2019-05-20T20:51:07.625Z,64.59
2019-05-20T20:53:37.287Z,64.93
2019-05-20T20:56:06.997Z,64.58
2019-05-20T20:58:36.694Z,64.69
2019-05-20T21:01:06.429Z,64.23
2019-05-20T21:03:36.232Z,64.35
2019-05-20T21:06:06.043Z,64.09
2019-05-20T21:08:35.906Z,64.46
2019-05-20T21:11:05.541Z,64.24
2019-05-20T21:13:35.241Z,64.43
2019-05-20T21:16:04.982Z,63.77
2019-05-20T21:18:34.877Z,63.86
2019-05-20T21:21:04.538Z,63.82
2019-05-20T21:23:34.267Z,63.41
2019-05-20T21:26:04.031Z,63.61
2019-05-20T21:28:33.716Z,63.55
2019-05-20T21:31:03.450Z,64.54
2019-05-20T21:33:33.188Z,65.35
2019-05-20T21:36:02.774Z,65.26
2019-05-20T21:38:32.541Z,65.60
2019-05-20T21:41:02.263Z,65.74
2019-05-20T21:43:31.904Z,65.66
2019-05-20T21:46:01.530Z,66.08
2019-05-20T21:48:31.238Z,67.08
2019-05-20T21:51:00.827Z,66.91
2019-05-20T21:53:30.373Z,66.57
2019-05-20T21:55:59.991Z,67.79
2019-05-20T21:58:29.717Z,67.16
2019-05-20T22:00:59.388Z,67.00
2019-05-20T22:03:28.999Z,67.61
2019-05-20T22:05:58.727Z,67.83
2019-05-20T22:08:28.542Z,67.03
2019-05-20T22:10:58.142Z,67.27
2019-05-20T22:13:27.778Z,67.20
2019-05-20T22:15:57.491Z,66.76
2019-05-20T22:18:27.254Z,66.84
2019-05-20T22:20:57.075Z,66.86
2019-05-20T22:23:37.214Z,66.98
2019-05-20T22:26:06.862Z,66.78
2019-05-20T22:28:36.573Z,66.54
2019-05-20T22:31:06.268Z,66.29
2019-05-20T22:33:41.276Z,66.77
2019-05-20T22:36:07.622Z,67.16
2019-05-20T22:38:37.377Z,67.35
2019-05-20T22:41:07.189Z,67.61
2019-05-20T22:43:36.721Z,67.05
2019-05-20T22:46:06.402Z,66.82
2019-05-20T22:48:36.075Z,66.54
2019-05-20T22:51:05.712Z,66.21
2019-05-20T22:53:35.398Z,66.09
2019-05-20T22:56:05.089Z,66.31
2019-05-20T22:58:38.423Z,67.47
2019-05-20T23:01:06.212Z,66.71
2019-05-20T23:03:35.867Z,67.07
2019-05-20T23:06:05.695Z,66.62
2019-05-20T23:08:35.507Z,66.71
2019-05-20T23:11:05.246Z,66.98
2019-05-20T23:13:35.026Z,66.89
2019-05-20T23:16:04.718Z,66.94
2019-05-20T23:18:34.438Z,66.55
2019-05-20T23:21:04.047Z,66.61
2019-05-20T23:23:33.720Z,66.48
2019-05-20T23:26:03.307Z,65.95
2019-05-20T23:28:33.093Z,67.46
2019-05-20T23:31:03.101Z,67.25
2019-05-20T23:33:32.716Z,67.23
2019-05-20T23:36:02.446Z,67.38
2019-05-20T23:38:32.081Z,67.96
2019-05-20T23:41:01.871Z,67.98
2019-05-20T23:43:31.770Z,67.52
2019-05-20T23:46:01.493Z,67.83
2019-05-20T23:48:31.189Z,68.34
2019-05-20T23:51:00.842Z,67.66
2019-05-20T23:53:30.515Z,67.63
2019-05-20T23:56:00.214Z,67.83
2019-05-20T23:58:29.839Z,67.97
